createdAt,value
2023-04-03T00:01:05.594Z,100.00
2023-04-03T00:03:32.151Z,100.00
2023-04-03T00:06:01.055Z,100.00
2023-04-03T00:08:27.562Z,100.00
2023-04-03T00:10:54.052Z,100.00
2023-04-03T00:13:20.531Z,100.00
2023-04-03T00:15:49.515Z,100.00
2023-04-03T00:18:16.036Z,100.00
2023-04-03T00:20:42.479Z,100.00
2023-04-03T00:23:11.947Z,100.00
2023-04-03T00:25:38.683Z,100.00
2023-04-03T00:28:05.864Z,100.00
2023-04-03T00:30:32.864Z,100.00
2023-04-03T00:33:02.326Z,100.00
2023-04-03T00:35:29.657Z,100.00
2023-04-03T00:37:56.699Z,100.00
2023-04-03T00:40:27.653Z,100.00
2023-04-03T00:42:59.805Z,100.00
2023-04-03T00:45:36.231Z,100.00
2023-04-03T00:48:07.352Z,100.00
2023-04-03T00:50:37.060Z,100.00
2023-04-03T00:53:06.120Z,100.00
2023-04-03T00:55:33.731Z,100.00
2023-04-03T00:58:02.402Z,100.00
2023-04-03T01:00:29.389Z,100.00
2023-04-03T01:02:56.067Z,100.00
2023-04-03T01:05:23.041Z,100.00
2023-04-03T01:07:54.568Z,100.00
2023-04-03T01:10:21.808Z,100.00
2023-04-03T01:12:51.271Z,100.00
2023-04-03T01:15:27.318Z,100.00
2023-04-03T01:17:58.055Z,100.00
2023-04-03T01:20:37.332Z,100.00
2023-04-03T01:23:13.458Z,100.00
2023-04-03T01:25:52.204Z,100.00
2023-04-03T01:28:28.462Z,100.00
2023-04-03T01:31:21.078Z,100.00
2023-04-03T01:33:52.363Z,100.00
2023-04-03T01:36:22.875Z,100.00
2023-04-03T01:38:49.512Z,100.00
2023-04-03T01:41:18.868Z,100.00
2023-04-03T01:43:45.632Z,100.00
2023-04-03T01:46:12.384Z,100.00
2023-04-03T01:48:39.045Z,100.00
2023-04-03T01:51:05.788Z,100.00
2023-04-03T01:53:32.229Z,100.00
2023-04-03T01:55:58.643Z,100.00
2023-04-03T01:58:25.452Z,100.00
2023-04-03T02:00:52.497Z,100.00
2023-04-03T02:03:19.476Z,100.00
2023-04-03T02:05:46.267Z,100.00
2023-04-03T02:08:13.195Z,100.00
2023-04-03T02:10:39.622Z,100.00
2023-04-03T02:13:06.243Z,100.00
2023-04-03T02:15:32.642Z,100.00
2023-04-03T02:17:59.092Z,100.00
2023-04-03T02:20:25.680Z,100.00
2023-04-03T02:22:54.448Z,100.00
2023-04-03T02:25:21.307Z,100.00
2023-04-03T02:27:53.085Z,100.00
2023-04-03T02:30:19.596Z,100.00
2023-04-03T02:32:46.266Z,100.00
2023-04-03T02:35:15.024Z,100.00
2023-04-03T02:37:41.565Z,100.00
2023-04-03T02:40:09.889Z,100.00
2023-04-03T02:42:36.389Z,100.00
2023-04-03T02:45:05.532Z,100.00
2023-04-03T02:47:32.093Z,100.00
2023-04-03T02:50:01.102Z,100.00
2023-04-03T02:52:27.601Z,100.00
2023-04-03T02:54:53.952Z,100.00
2023-04-03T02:57:21.100Z,100.00
2023-04-03T02:59:47.745Z,100.00
2023-04-03T03:02:14.171Z,100.00
2023-04-03T03:04:43.710Z,100.00
2023-04-03T03:07:10.475Z,100.00
2023-04-03T03:09:37.087Z,100.00
2023-04-03T03:12:03.855Z,100.00
2023-04-03T03:14:30.424Z,100.00
2023-04-03T03:16:56.743Z,100.00
2023-04-03T03:19:23.342Z,100.00
2023-04-03T03:21:49.828Z,100.00
2023-04-03T03:24:16.781Z,100.00
2023-04-03T03:26:43.617Z,100.00
2023-04-03T03:29:10.002Z,100.00
2023-04-03T03:31:36.435Z,100.00
2023-04-03T03:34:03.235Z,100.00
2023-04-03T03:36:29.612Z,100.00
2023-04-03T03:38:56.108Z,100.00
2023-04-03T03:41:22.562Z,100.00
2023-04-03T03:43:58.720Z,100.00
2023-04-03T03:46:25.268Z,100.00
2023-04-03T03:48:51.799Z,100.00
2023-04-03T03:51:18.270Z,100.00
2023-04-03T03:53:44.639Z,100.00
2023-04-03T03:56:11.389Z,100.00
2023-04-03T03:58:38.191Z,100.00
2023-04-03T04:01:06.758Z,100.00
2023-04-03T04:03:34.135Z,100.00
2023-04-03T04:06:01.103Z,100.00
2023-04-03T04:08:27.556Z,100.00
2023-04-03T04:10:53.976Z,100.00
2023-04-03T04:13:23.029Z,100.00
2023-04-03T04:15:49.667Z,100.00
2023-04-03T04:18:16.182Z,100.00
2023-04-03T04:20:46.353Z,100.00
2023-04-03T04:23:12.768Z,100.00
2023-04-03T04:25:41.657Z,100.00
2023-04-03T04:28:08.172Z,100.00
2023-04-03T04:30:36.950Z,100.00
2023-04-03T04:33:04.053Z,100.00
2023-04-03T04:35:30.518Z,100.00
2023-04-03T04:37:57.273Z,100.00
2023-04-03T04:40:23.897Z,100.00
2023-04-03T04:42:50.622Z,100.00
2023-04-03T04:45:17.248Z,100.00
2023-04-03T04:47:43.862Z,100.00
2023-04-03T04:50:13.476Z,100.00
2023-04-03T04:52:40.060Z,100.00
2023-04-03T04:55:06.882Z,100.00
2023-04-03T04:57:33.490Z,100.00
2023-04-03T05:00:00.068Z,100.00
2023-04-03T05:02:28.859Z,100.00
2023-04-03T05:04:55.533Z,100.00
2023-04-03T05:07:22.174Z,100.00
2023-04-03T05:09:48.688Z,100.00
2023-04-03T05:12:18.264Z,100.00
2023-04-03T05:14:44.654Z,100.00
2023-04-03T05:17:11.148Z,100.00
2023-04-03T05:19:37.641Z,100.00
2023-04-03T05:22:04.046Z,100.00
2023-04-03T05:24:30.824Z,100.00
2023-04-03T05:26:57.241Z,100.00
2023-04-03T05:29:23.650Z,100.00
2023-04-03T05:31:51.387Z,100.00
2023-04-03T05:34:25.448Z,100.00
2023-04-03T05:36:51.963Z,100.00
2023-04-03T05:39:18.644Z,100.00
2023-04-03T05:41:47.544Z,100.00
2023-04-03T05:44:13.950Z,100.00
2023-04-03T05:46:42.672Z,100.00
2023-04-03T05:49:09.070Z,100.00
2023-04-03T05:51:37.279Z,100.00
2023-04-03T05:54:17.273Z,100.00
2023-04-03T05:56:43.989Z,100.00
2023-04-03T05:59:10.435Z,100.00
2023-04-03T06:01:36.792Z,100.00
2023-04-03T06:04:04.249Z,100.00
2023-04-03T06:06:52.598Z,100.00
2023-04-03T06:09:21.850Z,100.00
2023-04-03T06:11:50.518Z,100.00
2023-04-03T06:14:19.300Z,100.00
2023-04-03T06:16:46.427Z,100.00
2023-04-03T06:19:13.280Z,100.00
2023-04-03T06:21:39.820Z,100.00
2023-04-03T06:24:06.866Z,100.00
2023-04-03T06:26:34.236Z,100.00
2023-04-03T06:29:01.156Z,100.00
2023-04-03T06:31:27.792Z,100.00
2023-04-03T06:33:54.620Z,100.00
2023-04-03T06:36:21.995Z,100.00
2023-04-03T06:38:56.115Z,100.00
2023-04-03T06:41:22.915Z,100.00
2023-04-03T06:43:49.518Z,100.00
2023-04-03T06:46:21.987Z,100.00
2023-04-03T06:48:49.650Z,100.00
2023-04-03T06:51:24.551Z,100.00
2023-04-03T06:53:55.388Z,100.00
2023-04-03T06:56:22.501Z,100.00
2023-04-03T06:58:49.704Z,100.00
2023-04-03T07:01:20.077Z,100.00
2023-04-03T07:03:48.923Z,100.00
2023-04-03T07:06:17.620Z,100.00
2023-04-03T07:08:44.674Z,100.00
2023-04-03T07:11:14.581Z,100.00
2023-04-03T07:13:41.419Z,100.00
2023-04-03T07:16:11.420Z,100.00
2023-04-03T07:18:38.073Z,100.00
2023-04-03T07:21:05.135Z,100.00
2023-04-03T07:23:31.573Z,100.00
2023-04-03T07:25:58.188Z,100.00
2023-04-03T07:28:25.353Z,100.00
2023-04-03T07:30:57.131Z,100.00
2023-04-03T07:33:24.040Z,100.00
2023-04-03T07:35:50.675Z,99.84
2023-04-03T07:38:17.343Z,100.00
2023-04-03T07:40:48.414Z,98.38
2023-04-03T07:43:15.916Z,100.00
2023-04-03T07:45:44.169Z,100.00
2023-04-03T07:48:14.313Z,99.61
2023-04-03T07:50:41.960Z,100.00
2023-04-03T07:53:09.008Z,99.98
2023-04-03T07:55:43.818Z,96.45
2023-04-03T07:58:15.652Z,92.46
2023-04-03T08:00:45.527Z,90.35
2023-04-03T08:03:12.900Z,94.77
2023-04-03T08:05:43.784Z,90.58
2023-04-03T08:08:12.661Z,96.02
2023-04-03T08:10:39.195Z,86.95
2023-04-03T08:13:10.777Z,77.95
2023-04-03T08:15:37.796Z,79.49
2023-04-03T08:18:04.850Z,83.55
2023-04-03T08:20:34.466Z,85.67
2023-04-03T08:23:00.907Z,83.48
2023-04-03T08:25:30.519Z,67.35
2023-04-03T08:27:59.364Z,67.34
2023-04-03T08:30:26.038Z,68.00
2023-04-03T08:32:52.757Z,67.38
2023-04-03T08:35:20.906Z,73.79
2023-04-03T08:37:47.718Z,75.34
2023-04-03T08:40:17.153Z,73.71
2023-04-03T08:43:07.389Z,86.43
2023-04-03T08:45:56.986Z,80.18
2023-04-03T08:48:37.655Z,70.96
2023-04-03T08:51:15.890Z,89.16
2023-04-03T08:53:59.321Z,81.52
2023-04-03T08:56:28.477Z,81.89
2023-04-03T08:59:05.468Z,70.58
2023-04-03T09:01:41.776Z,65.37
2023-04-03T09:04:19.480Z,65.03
2023-04-03T09:07:01.005Z,71.97
2023-04-03T09:09:42.343Z,66.71
2023-04-03T09:12:20.757Z,71.94
2023-04-03T09:14:58.737Z,70.81
2023-04-03T09:17:36.349Z,71.23
2023-04-03T09:20:26.941Z,65.40
2023-04-03T09:22:54.912Z,69.21
2023-04-03T09:25:28.282Z,64.21
2023-04-03T09:27:55.389Z,63.72
2023-04-03T09:30:27.086Z,60.89
2023-04-03T09:32:55.721Z,57.87
2023-04-03T09:35:36.384Z,67.00
2023-04-03T09:38:10.892Z,61.92
2023-04-03T09:40:42.153Z,58.09
2023-04-03T09:43:17.668Z,56.52
2023-04-03T09:45:48.514Z,55.10
2023-04-03T09:48:16.261Z,53.15
2023-04-03T09:50:52.293Z,56.37
2023-04-03T09:53:45.604Z,51.82
2023-04-03T09:56:17.981Z,51.16
2023-04-03T09:59:14.634Z,48.60
2023-04-03T10:01:43.077Z,47.90
2023-04-03T10:04:20.669Z,47.54
2023-04-03T10:06:51.024Z,48.88
2023-04-03T10:09:22.003Z,50.56
2023-04-03T10:12:07.754Z,51.25
2023-04-03T10:14:36.974Z,53.44
2023-04-03T10:17:09.724Z,55.22
2023-04-03T10:19:53.946Z,55.92
2023-04-03T10:22:31.401Z,54.55
2023-04-03T10:25:32.867Z,51.08
2023-04-03T10:28:03.885Z,50.53
2023-04-03T10:30:59.363Z,49.35
2023-04-03T10:33:50.671Z,49.77
2023-04-03T10:36:41.009Z,49.08
2023-04-03T10:39:23.020Z,47.96
2023-04-03T10:42:16.705Z,46.90
2023-04-03T10:44:51.480Z,48.20
2023-04-03T10:47:52.895Z,47.01
2023-04-03T10:50:42.767Z,47.25
2023-04-03T10:53:25.063Z,50.91
2023-04-03T10:55:56.411Z,49.53
2023-04-03T10:58:32.704Z,49.04
2023-04-03T11:01:08.041Z,53.52
2023-04-03T11:03:41.551Z,50.42
2023-04-03T11:06:15.589Z,46.90
2023-04-03T11:09:03.954Z,48.06
2023-04-03T11:11:40.824Z,47.45
2023-04-03T11:14:14.242Z,48.91
2023-04-03T11:17:02.595Z,48.72
2023-04-03T11:20:07.786Z,49.30
2023-04-03T11:22:41.929Z,50.00
2023-04-03T11:25:17.588Z,47.35
2023-04-03T11:28:12.878Z,46.26
2023-04-03T11:31:04.771Z,48.60
2023-04-03T11:33:53.528Z,46.44
2023-04-03T11:36:28.843Z,47.06
2023-04-03T11:39:11.187Z,48.49
2023-04-03T11:41:39.956Z,48.22
2023-04-03T11:44:28.278Z,48.74
2023-04-03T11:46:59.508Z,50.57
2023-04-03T11:49:59.054Z,50.26
2023-04-03T11:52:44.807Z,50.98
2023-04-03T11:55:23.293Z,50.74
2023-04-03T11:57:59.139Z,49.46
2023-04-03T12:00:44.551Z,50.74
2023-04-03T12:03:26.028Z,49.97
2023-04-03T12:05:53.741Z,49.63
2023-04-03T12:08:34.307Z,51.96
2023-04-03T12:11:26.332Z,50.82
2023-04-03T12:13:52.662Z,52.89
2023-04-03T12:16:43.291Z,53.42
2023-04-03T12:19:15.854Z,52.16
2023-04-03T12:21:49.055Z,49.25
2023-04-03T12:24:18.616Z,50.97
2023-04-03T12:27:22.057Z,54.03
2023-04-03T12:29:55.184Z,51.18
2023-04-03T12:32:49.307Z,49.51
2023-04-03T12:35:29.592Z,53.46
2023-04-03T12:38:31.755Z,55.17
2023-04-03T12:41:23.493Z,51.31
2023-04-03T12:44:05.212Z,51.90
2023-04-03T12:46:43.114Z,51.33
2023-04-03T12:49:38.586Z,48.15
2023-04-03T12:52:29.923Z,46.24
2023-04-03T12:54:58.302Z,48.25
2023-04-03T12:57:27.452Z,46.63
2023-04-03T12:59:57.342Z,43.80
2023-04-03T13:02:30.998Z,44.07
2023-04-03T13:05:06.664Z,46.23
2023-04-03T13:07:38.305Z,45.26
2023-04-03T13:10:16.932Z,44.06
2023-04-03T13:12:55.096Z,47.34
2023-04-03T13:15:28.065Z,47.32
2023-04-03T13:17:55.642Z,51.04
2023-04-03T13:20:28.099Z,47.20
2023-04-03T13:22:59.314Z,51.60
2023-04-03T13:25:30.905Z,50.77
2023-04-03T13:28:12.723Z,51.44
2023-04-03T13:30:41.954Z,48.97
2023-04-03T13:33:30.422Z,50.17
2023-04-03T13:36:02.860Z,52.36
2023-04-03T13:38:34.874Z,48.66
2023-04-03T13:41:06.055Z,47.29
2023-04-03T13:43:37.833Z,46.51
2023-04-03T13:46:13.391Z,48.13
2023-04-03T13:48:49.266Z,45.44
2023-04-03T13:51:15.996Z,44.51
2023-04-03T13:53:56.483Z,44.99
2023-04-03T13:56:34.725Z,45.11
2023-04-03T13:59:25.484Z,45.02
2023-04-03T14:02:03.843Z,44.13
2023-04-03T14:04:45.740Z,42.98
2023-04-03T14:07:13.374Z,43.90
2023-04-03T14:09:39.812Z,44.44
2023-04-03T14:12:24.228Z,46.17
2023-04-03T14:14:57.441Z,46.48
2023-04-03T14:17:26.120Z,46.94
2023-04-03T14:19:56.175Z,47.11
2023-04-03T14:22:27.225Z,47.35
2023-04-03T14:24:54.177Z,45.91
2023-04-03T14:27:26.321Z,42.93
2023-04-03T14:29:57.147Z,42.18
2023-04-03T14:32:28.173Z,42.07
2023-04-03T14:34:55.034Z,41.16
2023-04-03T14:37:25.507Z,42.93
2023-04-03T14:39:55.496Z,42.47
2023-04-03T14:42:25.973Z,40.63
2023-04-03T14:44:52.507Z,43.55
2023-04-03T14:47:31.144Z,43.60
2023-04-03T14:50:03.541Z,43.75
2023-04-03T14:52:34.343Z,41.52
2023-04-03T14:55:01.944Z,41.74
2023-04-03T14:57:30.333Z,41.58
2023-04-03T14:59:57.246Z,42.38
2023-04-03T15:02:32.042Z,40.84
2023-04-03T15:05:00.245Z,42.42
2023-04-03T15:07:30.461Z,40.19
2023-04-03T15:09:57.500Z,40.83
2023-04-03T15:12:26.851Z,39.59
2023-04-03T15:15:01.737Z,41.71
2023-04-03T15:17:30.206Z,41.13
2023-04-03T15:19:56.929Z,40.93
2023-04-03T15:22:23.326Z,41.32
2023-04-03T15:24:52.383Z,41.94
2023-04-03T15:27:19.039Z,42.06
2023-04-03T15:29:46.484Z,41.62
2023-04-03T15:32:13.722Z,41.79
2023-04-03T15:34:43.818Z,41.19
2023-04-03T15:37:10.248Z,43.31
2023-04-03T15:39:36.682Z,40.65
2023-04-03T15:42:07.076Z,42.41
2023-04-03T15:44:37.239Z,42.07
2023-04-03T15:47:04.081Z,42.66
2023-04-03T15:49:33.153Z,43.44
2023-04-03T15:51:59.774Z,42.79
2023-04-03T15:54:26.332Z,43.55
2023-04-03T15:56:56.396Z,44.34
2023-04-03T15:59:25.202Z,43.73
2023-04-03T16:01:53.211Z,42.77
2023-04-03T16:04:21.642Z,42.74
2023-04-03T16:06:48.148Z,42.50
2023-04-03T16:09:14.683Z,42.27
2023-04-03T16:11:41.200Z,43.21
2023-04-03T16:14:11.339Z,43.05
2023-04-03T16:16:40.423Z,42.89
2023-04-03T16:19:07.014Z,41.61
2023-04-03T16:21:35.023Z,41.33
2023-04-03T16:24:02.493Z,42.54
2023-04-03T16:26:29.553Z,44.08
2023-04-03T16:28:58.418Z,45.13
2023-04-03T16:31:26.559Z,45.60
2023-04-03T16:33:55.545Z,45.04
2023-04-03T16:36:22.066Z,44.24
2023-04-03T16:38:48.680Z,43.82
2023-04-03T16:41:17.390Z,43.71
2023-04-03T16:43:44.202Z,42.73
2023-04-03T16:46:13.182Z,42.72
2023-04-03T16:48:39.595Z,42.64
2023-04-03T16:51:06.163Z,42.87
2023-04-03T16:53:32.713Z,42.85
2023-04-03T16:56:01.472Z,43.93
2023-04-03T16:58:27.924Z,45.17
2023-04-03T17:00:56.972Z,44.99
2023-04-03T17:03:26.487Z,44.23
2023-04-03T17:05:53.088Z,45.34
2023-04-03T17:08:20.224Z,45.79
2023-04-03T17:10:46.633Z,46.79
2023-04-03T17:13:13.299Z,44.91
2023-04-03T17:15:40.233Z,45.59
2023-04-03T17:18:08.195Z,45.55
2023-04-03T17:20:34.773Z,45.15
2023-04-03T17:23:01.463Z,45.52
2023-04-03T17:25:28.028Z,44.90
2023-04-03T17:27:54.734Z,46.75
2023-04-03T17:30:21.112Z,45.45
2023-04-03T17:32:47.571Z,44.12
2023-04-03T17:35:14.239Z,44.36
2023-04-03T17:37:40.702Z,45.83
2023-04-03T17:40:07.756Z,46.28
2023-04-03T17:42:34.176Z,48.06
2023-04-03T17:45:01.263Z,48.46
2023-04-03T17:47:29.976Z,48.29
2023-04-03T17:49:56.402Z,48.42
2023-04-03T17:52:25.375Z,48.86
2023-04-03T17:54:51.974Z,48.86
2023-04-03T17:57:18.602Z,48.82
2023-04-03T17:59:45.460Z,48.69
2023-04-03T18:02:11.894Z,47.82
2023-04-03T18:04:38.408Z,50.02
2023-04-03T18:07:09.685Z,51.22
2023-04-03T18:09:37.689Z,50.68
2023-04-03T18:12:09.959Z,52.49
2023-04-03T18:14:38.414Z,53.99
2023-04-03T18:17:08.015Z,52.45
2023-04-03T18:19:34.860Z,54.98
2023-04-03T18:22:04.692Z,54.44
2023-04-03T18:24:34.310Z,58.07
2023-04-03T18:27:04.214Z,56.43
2023-04-03T18:29:33.884Z,60.20
2023-04-03T18:32:04.280Z,58.78
2023-04-03T18:34:33.627Z,55.60
2023-04-03T18:37:00.900Z,55.18
2023-04-03T18:39:30.555Z,56.19
2023-04-03T18:42:02.932Z,56.00
2023-04-03T18:44:32.944Z,58.15
2023-04-03T18:47:02.325Z,57.17
2023-04-03T18:49:31.663Z,56.15
2023-04-03T18:51:58.473Z,59.11
2023-04-03T18:54:25.087Z,59.61
2023-04-03T18:56:51.648Z,59.97
2023-04-03T18:59:20.863Z,60.17
2023-04-03T19:01:47.455Z,61.48
2023-04-03T19:04:14.355Z,59.73
2023-04-03T19:06:41.007Z,62.05
2023-04-03T19:09:08.037Z,59.69
2023-04-03T19:11:34.838Z,66.22
2023-04-03T19:14:15.965Z,67.69
2023-04-03T19:16:43.712Z,65.76
2023-04-03T19:19:10.544Z,67.24
2023-04-03T19:21:41.490Z,66.08
2023-04-03T19:24:12.625Z,66.57
2023-04-03T19:26:39.869Z,65.13
2023-04-03T19:29:08.978Z,64.28
2023-04-03T19:31:37.206Z,66.29
2023-04-03T19:34:05.267Z,65.37
2023-04-03T19:36:33.128Z,68.64
2023-04-03T19:38:59.667Z,70.84
2023-04-03T19:41:30.187Z,69.15
2023-04-03T19:43:57.346Z,69.94
2023-04-03T19:46:25.885Z,67.77
2023-04-03T19:48:52.724Z,70.85
2023-04-03T19:51:21.771Z,69.63
2023-04-03T19:53:48.614Z,68.96
2023-04-03T19:56:16.901Z,72.16
2023-04-03T19:58:44.081Z,66.69
2023-04-03T20:01:10.602Z,66.90
2023-04-03T20:03:36.919Z,69.74
2023-04-03T20:06:04.948Z,68.22
2023-04-03T20:08:31.750Z,70.81
2023-04-03T20:10:58.139Z,71.19
2023-04-03T20:13:27.285Z,71.47
2023-04-03T20:15:53.759Z,69.86
2023-04-03T20:18:24.169Z,77.45
2023-04-03T20:20:55.174Z,76.34
2023-04-03T20:23:21.787Z,78.94
2023-04-03T20:26:01.433Z,75.22
2023-04-03T20:28:36.241Z,74.75
2023-04-03T20:31:03.534Z,71.54
2023-04-03T20:33:30.129Z,74.07
2023-04-03T20:35:58.124Z,71.24
2023-04-03T20:38:25.212Z,75.07
2023-04-03T20:40:52.158Z,75.05
2023-04-03T20:43:19.740Z,76.50
2023-04-03T20:45:47.931Z,73.69
2023-04-03T20:48:15.068Z,73.84
2023-04-03T20:50:41.862Z,72.92
2023-04-03T20:53:12.176Z,74.29
2023-04-03T20:55:39.065Z,76.25
2023-04-03T20:58:06.008Z,77.32
2023-04-03T21:00:37.530Z,79.68
2023-04-03T21:03:04.053Z,75.64
2023-04-03T21:05:30.628Z,77.69
2023-04-03T21:08:37.519Z,76.67
2023-04-03T21:11:41.379Z,70.25
2023-04-03T21:14:46.758Z,71.10
2023-04-03T21:17:13.400Z,76.51
2023-04-03T21:19:45.977Z,72.85
2023-04-03T21:22:16.141Z,74.04
2023-04-03T21:24:44.320Z,77.79
2023-04-03T21:27:11.347Z,75.35
2023-04-03T21:29:40.453Z,73.27
2023-04-03T21:32:09.505Z,71.51
2023-04-03T21:34:35.877Z,78.22
2023-04-03T21:37:04.879Z,78.34
2023-04-03T21:39:31.604Z,76.31
2023-04-03T21:41:58.002Z,78.02
2023-04-03T21:44:28.608Z,74.78
2023-04-03T21:46:55.387Z,82.17
2023-04-03T21:49:23.205Z,85.15
2023-04-03T21:51:53.290Z,73.94
2023-04-03T21:54:20.610Z,75.37
2023-04-03T21:56:51.400Z,78.44
2023-04-03T21:59:18.210Z,78.20
2023-04-03T22:01:44.893Z,80.39
2023-04-03T22:04:11.474Z,76.52
2023-04-03T22:06:38.181Z,71.51
2023-04-03T22:09:04.861Z,75.06
2023-04-03T22:11:31.268Z,74.90
2023-04-03T22:14:00.233Z,78.00
2023-04-03T22:16:27.392Z,74.99
2023-04-03T22:18:54.657Z,76.96
2023-04-03T22:21:23.329Z,75.57
2023-04-03T22:23:49.779Z,70.25
2023-04-03T22:26:17.330Z,73.54
2023-04-03T22:28:47.074Z,75.85
2023-04-03T22:31:14.881Z,72.29
2023-04-03T22:33:42.425Z,70.50
2023-04-03T22:36:11.890Z,76.06
2023-04-03T22:38:43.342Z,68.63
2023-04-03T22:41:10.768Z,73.44
2023-04-03T22:43:37.927Z,75.56
2023-04-03T22:46:06.628Z,71.44
2023-04-03T22:48:35.644Z,79.36
2023-04-03T22:51:07.443Z,78.31
2023-04-03T22:53:35.011Z,74.19
2023-04-03T22:56:03.644Z,74.41
2023-04-03T22:58:30.414Z,75.11
2023-04-03T23:01:07.746Z,79.76
2023-04-03T23:03:38.732Z,72.92
2023-04-03T23:06:06.459Z,74.55
2023-04-03T23:08:34.999Z,75.27
2023-04-03T23:11:04.433Z,75.07
2023-04-03T23:13:30.977Z,76.89
2023-04-03T23:15:59.852Z,80.25
2023-04-03T23:18:29.447Z,78.30
2023-04-03T23:20:56.980Z,81.17
2023-04-03T23:23:24.500Z,80.23
2023-04-03T23:25:54.964Z,82.10
2023-04-03T23:28:21.615Z,78.91
2023-04-03T23:30:48.122Z,91.99
2023-04-03T23:33:15.127Z,81.43
2023-04-03T23:35:46.678Z,81.95
2023-04-03T23:38:13.482Z,82.26
2023-04-03T23:40:41.773Z,78.51
2023-04-03T23:43:08.794Z,79.83
2023-04-03T23:45:35.636Z,80.81
2023-04-03T23:48:02.279Z,77.51
2023-04-03T23:50:31.268Z,77.16
2023-04-03T23:52:57.785Z,78.67
2023-04-03T23:55:24.416Z,77.57
2023-04-03T23:57:50.784Z,82.28
